»·PEaware :: N286WF KSMX-KBFL

N286WF :: KSMX-KBFL

FLIGHT INFORMATION

Flight Status: Arrived
Operator: Privately registered:
United States
More flights under this callsign
Pilot: Frank W. (16848)
Aircraft: Unknown
(P28U)
More flights by this aircraft type
Origin: KSMX Santa Maria Pub/Capt Hancock
United States
Destination: KBFL Meadows
United States
More flights between these airports :: More routes between these airports
Route: FLW, EHF
File this flight plan on PilotEdge
Remarks: Flight Following
Altitude:
(Current/Filed)
5,500ft
Speed:
(Current/Filed)
140kts
Departed: 21-Sep-18 04:28 PM
Arrived: 21-Sep-18 05:14 PM
Distance/Time
Traveled:
76nm/0:46
Distance/Time
To Go:
Arrived

Flight Plot

Page will automatically refresh every two minutes.

Flight plan parsing failed; only flown route is shown


Map Options




Map Legend


Flown Route
Filed Route
Departure Airport
Arrival Airport
Navaid (VOR, NDB)
Fix

Horizontal Profiles

Position Reports

Time Latitude Longitude Heading Altitude Ground
Speed
21-Sep-18 16:13 34.894338 -120.443500 136 264ft 0kts
21-Sep-18 16:14 34.894338 -120.443500 136 264ft 0kts
21-Sep-18 16:15 34.894338 -120.443500 136 264ft 0kts
21-Sep-18 16:16 34.894338 -120.443500 136 264ft 0kts
21-Sep-18 16:17 34.894338 -120.443500 136 264ft 0kts
21-Sep-18 16:18 34.894338 -120.443500 136 264ft 0kts
21-Sep-18 16:19 34.894338 -120.443500 136 264ft 0kts
21-Sep-18 16:20 34.894338 -120.443500 136 264ft 0kts
21-Sep-18 16:21 34.894338 -120.443500 136 264ft 0kts
21-Sep-18 16:22 34.894303 -120.443460 136 264ft 0kts
21-Sep-18 16:23 34.893923 -120.444124 285 264ft 6kts
21-Sep-18 16:24 34.893856 -120.444778 26 264ft 6kts
21-Sep-18 16:25 34.894018 -120.444711 288 264ft 0kts
21-Sep-18 16:26 34.894019 -120.444712 291 264ft 0kts
21-Sep-18 16:27 34.894019 -120.444712 291 264ft 0kts
21-Sep-18 16:28 34.893337 -120.445216 180 264ft 0kts
21-Sep-18 16:29 34.892893 -120.445965 314 264ft 0kts
21-Sep-18 16:30 34.901830 -120.457881 316 762ft 84kts
21-Sep-18 16:31 34.922954 -120.453017 20 2444ft 83kts
21-Sep-18 16:32 34.928207 -120.427645 78 3857ft 92kts
21-Sep-18 16:33 34.932703 -120.404061 68 4963ft 101kts
21-Sep-18 16:34 34.941695 -120.360646 69 5489ft 140kts
21-Sep-18 16:35 34.952682 -120.317813 64 5593ft 140kts
21-Sep-18 16:36 34.967598 -120.284944 51 5582ft 146kts
21-Sep-18 16:37 34.989308 -120.248152 56 5672ft 150kts
21-Sep-18 16:38 35.005158 -120.195748 77 5596ft 151kts
21-Sep-18 16:39 35.016676 -120.160572 51 5582ft 154kts
21-Sep-18 16:40 35.045732 -120.130481 48 5541ft 146kts
21-Sep-18 16:41 35.072506 -120.099143 38 5533ft 142kts
21-Sep-18 16:42 35.086254 -120.059191 83 5651ft 143kts
21-Sep-18 16:43 35.081079 -120.013545 109 5666ft 151kts
21-Sep-18 16:44 35.060637 -119.964491 86 5730ft 146kts
21-Sep-18 16:45 35.069986 -119.929507 51 5787ft 145kts
21-Sep-18 16:46 35.090707 -119.890718 63 5620ft 149kts
21-Sep-18 16:47 35.097960 -119.845326 62 5711ft 138kts
21-Sep-18 16:48 35.117116 -119.809036 49 5704ft 149kts
21-Sep-18 16:49 35.141216 -119.772176 49 5535ft 145kts
21-Sep-18 16:50 35.163947 -119.737380 49 5643ft 142kts
21-Sep-18 16:51 35.187200 -119.702184 49 5574ft 146kts
21-Sep-18 16:52 35.210489 -119.667221 48 5562ft 145kts
21-Sep-18 16:53 35.232732 -119.633389 48 5661ft 142kts
21-Sep-18 16:54 35.255788 -119.598654 48 5694ft 143kts
21-Sep-18 16:55 35.279655 -119.562884 48 5507ft 149kts
21-Sep-18 16:56 35.303294 -119.527780 48 5574ft 141kts
21-Sep-18 16:57 35.326453 -119.493295 48 5607ft 143kts
21-Sep-18 16:58 35.350105 -119.458215 48 5389ft 153kts
21-Sep-18 16:59 35.373983 -119.422489 51 4595ft 134kts
21-Sep-18 17:00 35.384348 -119.384119 76 3923ft 128kts
21-Sep-18 17:01 35.394573 -119.346432 74 3132ft 126kts
21-Sep-18 17:02 35.399789 -119.309224 72 2325ft 120kts
21-Sep-18 17:03 35.402974 -119.274358 88 1901ft 103kts
21-Sep-18 17:04 35.404148 -119.246572 27 2123ft 73kts
21-Sep-18 17:05 35.433279 -119.247389 358 2459ft 137kts
21-Sep-18 17:06 35.470893 -119.251979 2 2243ft 141kts
21-Sep-18 17:07 35.498781 -119.232239 48 1936ft 129kts
21-Sep-18 17:08 35.484891 -119.205908 134 1361ft 120kts
21-Sep-18 17:09 35.470512 -119.168825 108 1716ft 144kts
21-Sep-18 17:10 35.456200 -119.126705 108 1902ft 156kts
21-Sep-18 17:11 35.436701 -119.089864 131 1801ft 139kts
21-Sep-18 17:12 35.410890 -119.064665 141 1772ft 132kts
21-Sep-18 17:13 35.399447 -119.042858 68 1266ft 92kts
21-Sep-18 17:14 35.413452 -119.033410 325 1135ft 74kts
21-Sep-18 17:15 35.427638 -119.049129 322 658ft 78kts
21-Sep-18 17:16 35.435869 -119.058227 6 496ft 11kts
21-Sep-18 17:17 35.436338 -119.057565 81 496ft 6kts
21-Sep-18 17:18 35.433818 -119.053930 135 496ft 19kts
21-Sep-18 17:19 35.430574 -119.050093 135 496ft 13kts
21-Sep-18 17:20 35.429823 -119.048577 52 496ft 11kts
21-Sep-18 17:21 35.430255 -119.047278 228 496ft 0kts
21-Sep-18 17:22 35.430255 -119.047278 228 496ft 0kts
21-Sep-18 17:23 35.430255 -119.047278 228 496ft 0kts
21-Sep-18 17:24 35.430255 -119.047278 228 496ft 0kts
21-Sep-18 17:25 35.430255 -119.047278 228 496ft 0kts
21-Sep-18 17:26 35.430255 -119.047278 228 496ft 0kts
21-Sep-18 17:27 35.430255 -119.047278 228 496ft 0kts
21-Sep-18 17:28 35.430255 -119.047278 228 496ft 0kts

Navigation Log

Ident Type
Flight plan parsing failed, navigation log unavailable